createdAt,value
2023-07-24T00:00:15.395Z,874.00
2023-07-24T00:01:15.432Z,876.00
2023-07-24T00:02:15.389Z,873.00
2023-07-24T00:03:15.423Z,892.00
2023-07-24T00:04:15.358Z,895.00
2023-07-24T00:05:15.349Z,903.00
2023-07-24T00:06:15.358Z,911.00
2023-07-24T00:07:15.357Z,924.00
2023-07-24T00:08:15.361Z,931.00
2023-07-24T00:09:15.321Z,926.00
2023-07-24T00:10:15.329Z,932.00
2023-07-24T00:11:15.313Z,933.00
2023-07-24T00:12:15.308Z,940.00
2023-07-24T00:13:15.315Z,934.00
2023-07-24T00:14:15.311Z,943.00
2023-07-24T00:15:15.309Z,943.00
2023-07-24T00:16:15.275Z,946.00
2023-07-24T00:17:15.495Z,938.00
2023-07-24T00:18:15.274Z,949.00
2023-07-24T00:19:15.261Z,940.00
2023-07-24T00:20:15.274Z,934.00
2023-07-24T00:21:15.297Z,935.00
2023-07-24T00:22:15.333Z,924.00
2023-07-24T00:23:15.419Z,924.00
2023-07-24T00:24:15.394Z,929.00
2023-07-24T00:25:15.395Z,913.00
2023-07-24T00:26:15.430Z,931.00
2023-07-24T00:27:15.476Z,924.00
2023-07-24T00:28:15.493Z,923.00
2023-07-24T00:29:15.525Z,918.00
2023-07-24T00:30:15.542Z,918.00
2023-07-24T00:31:15.600Z,916.00
2023-07-24T00:32:15.624Z,929.00
2023-07-24T00:33:15.739Z,933.00
2023-07-24T00:34:15.691Z,937.00
2023-07-24T00:35:15.743Z,928.00
2023-07-24T00:36:15.760Z,933.00
2023-07-24T00:37:15.791Z,930.00
2023-07-24T00:38:15.823Z,924.00
2023-07-24T00:39:15.855Z,922.00
2023-07-24T00:40:15.889Z,930.00
2023-07-24T00:41:15.876Z,921.00
2023-07-24T00:42:15.919Z,923.00
2023-07-24T00:43:15.979Z,931.00
2023-07-24T00:44:16.012Z,918.00
2023-07-24T00:45:16.024Z,930.00
2023-07-24T00:46:16.075Z,917.00
2023-07-24T00:47:16.063Z,928.00
2023-07-24T00:48:16.096Z,915.00
2023-07-24T00:49:16.122Z,904.00
2023-07-24T00:50:16.174Z,901.00
2023-07-24T00:51:16.194Z,914.00
2023-07-24T00:52:16.236Z,903.00
2023-07-24T00:53:16.246Z,912.00
2023-07-24T00:54:16.292Z,909.00
2023-07-24T00:55:16.317Z,897.00
2023-07-24T00:56:16.349Z,894.00
2023-07-24T00:57:16.380Z,905.00
2023-07-24T00:58:16.423Z,904.00
2023-07-24T00:59:16.462Z,901.00
2023-07-24T01:00:16.468Z,910.00
2023-07-24T01:01:16.533Z,912.00
2023-07-24T01:02:16.533Z,914.00
2023-07-24T01:03:16.569Z,919.00
2023-07-24T01:04:16.582Z,925.00
2023-07-24T01:05:16.731Z,926.00
2023-07-24T01:06:16.640Z,935.00
2023-07-24T01:07:16.685Z,939.00
2023-07-24T01:08:16.720Z,955.00
2023-07-24T01:09:16.732Z,963.00
2023-07-24T01:10:16.790Z,965.00
2023-07-24T01:11:16.809Z,974.00
2023-07-24T01:12:16.845Z,981.00
2023-07-24T01:13:16.905Z,988.00
2023-07-24T01:14:16.944Z,996.00
2023-07-24T01:15:16.946Z,1006.00
2023-07-24T01:16:17.055Z,1015.00
2023-07-24T01:17:16.994Z,1031.00
2023-07-24T01:18:17.004Z,1037.00
2023-07-24T01:19:17.024Z,1056.00
2023-07-24T01:20:17.094Z,1054.00
2023-07-24T01:21:17.104Z,1069.00
2023-07-24T01:22:17.169Z,1073.00
2023-07-24T01:23:17.207Z,1086.00
2023-07-24T01:24:17.266Z,1091.00
2023-07-24T01:25:17.261Z,1097.00
2023-07-24T01:26:17.316Z,1091.00
2023-07-24T01:27:17.428Z,1087.00
2023-07-24T01:28:17.393Z,1104.00
2023-07-24T01:29:17.428Z,1105.00
2023-07-24T01:30:17.503Z,1100.00
2023-07-24T01:31:17.554Z,1114.00
2023-07-24T01:32:17.598Z,1106.00
2023-07-24T01:33:17.644Z,1120.00
2023-07-24T01:34:17.708Z,1117.00
2023-07-24T01:35:17.787Z,1123.00
2023-07-24T01:36:17.801Z,1120.00
2023-07-24T01:37:17.869Z,1114.00
2023-07-24T01:38:17.949Z,1122.00
2023-07-24T01:39:17.925Z,1119.00
2023-07-24T01:40:18.013Z,1112.00
2023-07-24T01:41:18.054Z,1113.00
2023-07-24T01:42:18.128Z,1111.00
2023-07-24T01:43:18.163Z,1107.00
2023-07-24T01:44:18.217Z,1108.00
2023-07-24T01:45:18.244Z,1106.00
2023-07-24T01:46:18.352Z,1102.00
2023-07-24T01:47:18.373Z,1103.00
2023-07-24T01:48:18.431Z,1099.00
2023-07-24T01:49:18.459Z,1092.00
2023-07-24T01:50:18.505Z,1087.00
2023-07-24T01:51:18.552Z,1083.00
2023-07-24T01:52:18.633Z,1079.00
2023-07-24T01:53:18.703Z,1065.00
2023-07-24T01:54:18.701Z,1069.00
2023-07-24T01:55:18.741Z,1061.00
2023-07-24T01:56:18.807Z,1054.00
2023-07-24T01:57:18.871Z,1052.00
2023-07-24T01:58:18.946Z,1046.00
2023-07-24T01:59:18.962Z,1057.00
2023-07-24T02:00:19.022Z,1043.00
2023-07-24T02:01:19.065Z,1038.00
2023-07-24T02:02:19.206Z,1042.00
2023-07-24T02:03:19.289Z,1044.00
2023-07-24T02:04:19.283Z,1047.00
2023-07-24T02:05:19.278Z,1041.00
2023-07-24T02:06:19.381Z,1045.00
2023-07-24T02:07:19.364Z,1050.00
2023-07-24T02:08:19.485Z,1060.00
2023-07-24T02:09:19.506Z,1047.00
2023-07-24T02:10:19.592Z,1051.00
2023-07-24T02:11:19.605Z,1061.00
2023-07-24T02:12:19.690Z,1067.00
2023-07-24T02:13:19.751Z,1069.00
2023-07-24T02:14:19.807Z,1064.00
2023-07-24T02:15:19.828Z,1070.00
2023-07-24T02:16:19.915Z,1075.00
2023-07-24T02:17:19.990Z,1071.00
2023-07-24T02:18:19.981Z,1074.00
2023-07-24T02:19:20.044Z,1079.00
2023-07-24T02:20:20.110Z,1077.00
2023-07-24T02:21:20.189Z,1083.00
2023-07-24T02:22:20.258Z,1088.00
2023-07-24T02:23:20.268Z,1089.00
2023-07-24T02:24:20.350Z,1088.00
2023-07-24T02:25:20.429Z,1090.00
2023-07-24T02:26:20.457Z,1090.00
2023-07-24T02:27:20.502Z,1079.00
2023-07-24T02:28:20.574Z,1085.00
2023-07-24T02:29:20.657Z,1087.00
2023-07-24T02:30:20.704Z,1087.00
2023-07-24T02:31:20.828Z,1080.00
2023-07-24T02:32:20.806Z,1080.00
2023-07-24T02:33:20.855Z,1085.00
2023-07-24T02:34:20.984Z,1090.00
2023-07-24T02:35:20.985Z,1093.00
2023-07-24T02:36:21.046Z,1102.00
2023-07-24T02:37:21.072Z,1109.00
2023-07-24T02:38:21.142Z,1119.00
2023-07-24T02:39:21.213Z,1122.00
2023-07-24T02:40:21.272Z,1136.00
2023-07-24T02:41:21.302Z,1133.00
2023-07-24T02:42:21.397Z,1145.00
2023-07-24T02:43:21.421Z,1151.00
2023-07-24T02:44:21.494Z,1143.00
2023-07-24T02:45:21.561Z,1170.00
2023-07-24T02:46:21.584Z,1174.00
2023-07-24T02:47:21.645Z,1178.00
2023-07-24T02:48:21.679Z,1186.00
2023-07-24T02:49:21.754Z,1188.00
2023-07-24T02:50:21.805Z,1192.00
2023-07-24T02:51:21.873Z,1202.00
2023-07-24T02:52:21.915Z,1197.00
2023-07-24T02:53:21.992Z,1198.00
2023-07-24T02:54:22.057Z,1197.00
2023-07-24T02:55:22.103Z,1197.00
2023-07-24T02:56:22.174Z,1184.00
2023-07-24T02:57:22.213Z,1187.00
2023-07-24T02:58:22.280Z,1185.00
2023-07-24T02:59:22.340Z,1175.00
2023-07-24T03:00:22.404Z,1166.00
2023-07-24T03:01:22.489Z,1157.00
2023-07-24T03:02:22.598Z,1158.00
2023-07-24T03:03:22.757Z,1147.00
2023-07-24T03:04:22.638Z,1127.00
2023-07-24T03:05:22.680Z,1116.00
2023-07-24T03:06:22.734Z,1110.00
2023-07-24T03:07:22.794Z,1099.00
2023-07-24T03:08:22.840Z,1089.00
2023-07-24T03:09:22.901Z,1077.00
2023-07-24T03:10:22.952Z,1079.00
2023-07-24T03:11:22.979Z,1077.00
2023-07-24T03:12:23.040Z,1088.00
2023-07-24T03:13:23.087Z,1087.00
2023-07-24T03:14:23.143Z,1086.00
2023-07-24T03:15:23.226Z,1080.00
2023-07-24T03:16:23.321Z,1089.00
2023-07-24T03:17:23.319Z,1091.00
2023-07-24T03:18:23.367Z,1091.00
2023-07-24T03:19:23.427Z,1096.00
2023-07-24T03:20:23.465Z,1093.00
2023-07-24T03:21:23.509Z,1098.00
2023-07-24T03:22:23.580Z,1114.00
2023-07-24T03:23:23.619Z,1120.00
2023-07-24T03:24:23.747Z,1122.00
2023-07-24T03:25:23.755Z,1137.00
2023-07-24T03:26:23.798Z,1136.00
2023-07-24T03:27:23.858Z,1145.00
2023-07-24T03:28:23.927Z,1151.00
2023-07-24T03:29:23.995Z,1156.00
2023-07-24T03:30:24.082Z,1157.00
2023-07-24T03:31:24.126Z,1161.00
2023-07-24T03:32:24.162Z,1164.00
2023-07-24T03:33:24.204Z,1167.00
2023-07-24T03:34:24.274Z,1173.00
2023-07-24T03:35:24.323Z,1167.00
2023-07-24T03:36:24.846Z,1167.00
2023-07-24T03:37:24.436Z,1175.00
2023-07-24T03:38:24.473Z,1165.00
2023-07-24T03:39:24.571Z,1159.00
2023-07-24T03:40:24.587Z,1143.00
2023-07-24T03:41:24.621Z,1145.00
2023-07-24T03:42:24.680Z,1130.00
2023-07-24T03:43:24.746Z,1121.00
2023-07-24T03:44:24.797Z,1117.00
2023-07-24T03:45:24.842Z,1109.00
2023-07-24T03:46:24.908Z,1089.00
2023-07-24T03:47:24.982Z,1078.00
2023-07-24T03:48:25.004Z,1073.00
2023-07-24T03:49:25.084Z,1075.00
2023-07-24T03:50:25.113Z,1077.00
2023-07-24T03:51:25.169Z,1078.00
2023-07-24T03:52:25.260Z,1077.00
2023-07-24T03:53:25.258Z,1084.00
2023-07-24T03:54:25.332Z,1081.00
2023-07-24T03:55:25.450Z,1099.00
2023-07-24T03:56:25.428Z,1098.00
2023-07-24T03:57:25.455Z,1105.00
2023-07-24T03:58:25.507Z,1113.00
2023-07-24T03:59:25.593Z,1116.00
2023-07-24T04:00:25.597Z,1117.00
2023-07-24T04:01:25.681Z,1109.00
2023-07-24T04:02:25.761Z,1124.00
2023-07-24T04:03:25.910Z,1114.00
2023-07-24T04:04:25.826Z,1117.00
2023-07-24T04:05:25.852Z,1119.00
2023-07-24T04:06:25.919Z,1119.00
2023-07-24T04:07:26.014Z,1120.00
2023-07-24T04:08:25.979Z,1117.00
2023-07-24T04:09:26.056Z,1128.00
2023-07-24T04:10:26.106Z,1131.00
2023-07-24T04:11:26.123Z,1130.00
2023-07-24T04:12:26.200Z,1132.00
2023-07-24T04:13:26.234Z,1129.00
2023-07-24T04:14:26.324Z,1132.00
2023-07-24T04:15:26.403Z,1132.00
2023-07-24T04:16:29.095Z,1144.00
2023-07-24T04:17:26.494Z,1143.00
2023-07-24T04:18:26.403Z,1140.00
2023-07-24T04:19:26.421Z,1136.00
2023-07-24T04:20:26.428Z,1141.00
2023-07-24T04:21:26.417Z,1136.00
2023-07-24T04:22:26.384Z,1143.00
2023-07-24T04:23:26.435Z,1148.00
2023-07-24T04:24:26.392Z,1156.00
2023-07-24T04:25:26.371Z,1150.00
2023-07-24T04:26:26.375Z,1154.00
2023-07-24T04:27:26.341Z,1156.00
2023-07-24T04:28:26.332Z,1161.00
2023-07-24T04:29:26.342Z,1166.00
2023-07-24T04:30:26.335Z,1171.00
2023-07-24T04:31:26.401Z,1172.00
2023-07-24T04:32:26.312Z,1165.00
2023-07-24T04:33:26.284Z,1168.00
2023-07-24T04:34:26.299Z,1176.00
2023-07-24T04:35:26.300Z,1170.00
2023-07-24T04:36:26.263Z,1174.00
2023-07-24T04:37:26.271Z,1171.00
2023-07-24T04:38:26.253Z,1169.00
2023-07-24T04:39:26.321Z,1168.00
2023-07-24T04:40:26.255Z,1166.00
2023-07-24T04:41:26.229Z,1165.00
2023-07-24T04:42:26.230Z,1165.00
2023-07-24T04:43:26.245Z,1157.00
2023-07-24T04:44:26.226Z,1163.00
2023-07-24T04:45:26.273Z,1167.00
2023-07-24T04:46:26.288Z,1159.00
2023-07-24T04:47:26.262Z,1150.00
2023-07-24T04:48:26.191Z,1163.00
2023-07-24T04:49:26.185Z,1151.00
2023-07-24T04:50:26.182Z,1168.00
2023-07-24T04:51:26.193Z,1160.00
2023-07-24T04:52:26.190Z,1157.00
2023-07-24T04:53:26.167Z,1160.00
2023-07-24T04:54:26.146Z,1164.00
2023-07-24T04:55:26.253Z,1160.00
2023-07-24T04:56:26.168Z,1161.00
2023-07-24T04:57:26.223Z,1150.00
2023-07-24T04:58:26.280Z,1149.00
2023-07-24T04:59:26.352Z,1154.00
2023-07-24T05:00:26.385Z,1161.00
2023-07-24T05:01:26.488Z,1161.00
2023-07-24T05:02:26.509Z,1157.00
2023-07-24T05:03:26.581Z,1157.00
2023-07-24T05:04:26.650Z,1164.00
2023-07-24T05:05:26.673Z,1166.00
2023-07-24T05:06:26.822Z,1164.00
2023-07-24T05:07:26.807Z,1169.00
2023-07-24T05:08:26.861Z,1182.00
2023-07-24T05:09:26.895Z,1186.00
2023-07-24T05:10:26.973Z,1196.00
2023-07-24T05:11:27.006Z,1212.00
2023-07-24T05:12:27.069Z,1231.00
2023-07-24T05:13:27.118Z,1237.00
2023-07-24T05:14:27.196Z,1249.00
2023-07-24T05:15:27.234Z,1266.00
2023-07-24T05:16:27.351Z,1274.00
2023-07-24T05:17:27.376Z,1288.00
2023-07-24T05:18:27.420Z,1290.00
2023-07-24T05:19:27.457Z,1303.00
2023-07-24T05:20:27.527Z,1291.00
2023-07-24T05:21:27.582Z,1308.00
2023-07-24T05:22:27.623Z,1301.00
2023-07-24T05:23:27.669Z,1297.00
2023-07-24T05:24:27.753Z,1303.00
2023-07-24T05:25:27.841Z,1305.00
2023-07-24T05:26:28.151Z,1316.00
2023-07-24T05:27:27.880Z,1318.00
2023-07-24T05:28:27.966Z,1329.00
2023-07-24T05:29:28.015Z,1338.00
2023-07-24T05:30:28.052Z,1343.00
2023-07-24T05:31:28.130Z,1353.00
2023-07-24T05:32:28.175Z,1353.00
2023-07-24T05:33:28.220Z,1352.00
2023-07-24T05:34:28.237Z,1353.00
2023-07-24T05:35:28.308Z,1353.00
2023-07-24T05:36:28.749Z,1358.00
2023-07-24T05:37:28.399Z,1349.00
2023-07-24T05:38:28.451Z,1345.00
2023-07-24T05:39:28.481Z,1346.00
2023-07-24T05:40:28.549Z,1340.00
2023-07-24T05:41:28.573Z,1346.00
2023-07-24T05:42:28.636Z,1338.00
2023-07-24T05:43:28.671Z,1339.00
2023-07-24T05:44:28.705Z,1337.00
2023-07-24T05:45:28.785Z,1338.00
2023-07-24T05:46:29.186Z,1326.00
2023-07-24T05:47:28.934Z,1331.00
2023-07-24T05:48:28.911Z,1327.00
2023-07-24T05:49:28.981Z,1329.00
2023-07-24T05:50:29.016Z,1320.00
2023-07-24T05:51:29.158Z,1317.00
2023-07-24T05:52:29.144Z,1322.00
2023-07-24T05:53:29.185Z,1301.00
2023-07-24T05:54:29.219Z,1286.00
2023-07-24T05:55:29.299Z,1277.00
2023-07-24T05:56:29.667Z,1255.00
2023-07-24T05:57:29.410Z,1227.00
2023-07-24T05:58:29.420Z,1197.00
2023-07-24T05:59:29.447Z,1169.00
2023-07-24T06:00:29.541Z,1150.00
2023-07-24T06:01:29.586Z,1123.00
2023-07-24T06:02:29.676Z,1102.00
2023-07-24T06:03:29.682Z,1094.00
2023-07-24T06:04:29.893Z,1082.00
2023-07-24T06:05:29.759Z,1058.00
2023-07-24T06:06:30.129Z,1061.00
2023-07-24T06:07:29.884Z,1054.00
2023-07-24T06:08:29.910Z,1048.00
2023-07-24T06:09:29.943Z,1049.00
2023-07-24T06:10:30.054Z,1055.00
2023-07-24T06:11:30.053Z,1065.00
2023-07-24T06:12:30.082Z,1074.00
2023-07-24T06:13:30.130Z,1083.00
2023-07-24T06:14:30.151Z,1094.00
2023-07-24T06:15:30.198Z,1100.00
2023-07-24T06:16:30.414Z,1122.00
2023-07-24T06:17:30.260Z,1135.00
2023-07-24T06:18:30.240Z,1136.00
2023-07-24T06:19:30.329Z,1150.00
2023-07-24T06:20:30.299Z,1165.00
2023-07-24T06:21:30.389Z,1170.00
2023-07-24T06:22:30.346Z,1168.00
2023-07-24T06:23:30.367Z,1174.00
2023-07-24T06:24:30.465Z,1180.00
2023-07-24T06:25:30.427Z,1190.00
2023-07-24T06:26:30.670Z,1184.00
2023-07-24T06:27:30.468Z,1194.00
2023-07-24T06:28:30.503Z,1202.00
2023-07-24T06:29:30.527Z,1187.00
2023-07-24T06:30:30.536Z,1191.00
2023-07-24T06:31:30.616Z,1188.00
2023-07-24T06:32:30.577Z,1189.00
2023-07-24T06:33:30.555Z,1189.00
2023-07-24T06:34:30.579Z,1180.00
2023-07-24T06:35:30.561Z,1174.00
2023-07-24T06:36:30.952Z,1181.00
2023-07-24T06:37:30.596Z,1189.00
2023-07-24T06:38:30.600Z,1183.00
2023-07-24T06:39:30.617Z,1194.00
2023-07-24T06:40:30.621Z,1201.00
2023-07-24T06:41:30.654Z,1194.00
2023-07-24T06:42:30.624Z,1201.00
2023-07-24T06:43:30.747Z,1195.00
2023-07-24T06:44:30.752Z,1190.00
2023-07-24T06:45:30.789Z,1177.00
2023-07-24T06:46:31.050Z,1170.00
2023-07-24T06:47:30.848Z,1161.00
2023-07-24T06:48:30.802Z,1144.00
2023-07-24T06:49:30.780Z,1136.00
2023-07-24T06:50:30.867Z,1113.00
2023-07-24T06:51:30.867Z,1093.00
2023-07-24T06:52:30.910Z,1100.00
2023-07-24T06:53:30.918Z,1070.00
2023-07-24T06:54:30.948Z,1050.00
2023-07-24T06:55:30.969Z,1051.00
2023-07-24T06:56:31.276Z,1052.00
2023-07-24T06:57:31.040Z,1051.00
2023-07-24T06:58:31.052Z,1043.00
2023-07-24T06:59:31.074Z,1036.00
2023-07-24T07:00:31.230Z,1032.00
2023-07-24T07:01:31.159Z,1035.00
2023-07-24T07:02:31.212Z,1037.00
2023-07-24T07:03:31.242Z,1047.00
2023-07-24T07:04:31.233Z,1057.00
2023-07-24T07:05:31.278Z,1071.00
2023-07-24T07:06:31.315Z,1068.00
2023-07-24T07:07:31.332Z,1069.00
2023-07-24T07:08:31.429Z,1073.00
2023-07-24T07:09:31.414Z,1078.00
2023-07-24T07:10:31.482Z,1074.00
2023-07-24T07:11:31.504Z,1075.00
2023-07-24T07:12:31.526Z,1067.00
2023-07-24T07:13:31.592Z,1076.00
2023-07-24T07:14:31.593Z,1072.00
2023-07-24T07:15:31.649Z,1076.00
2023-07-24T07:16:32.044Z,1074.00
2023-07-24T07:17:31.735Z,1078.00
2023-07-24T07:18:31.728Z,1066.00
2023-07-24T07:19:31.891Z,1064.00
2023-07-24T07:20:31.813Z,1062.00
2023-07-24T07:21:31.913Z,1067.00
2023-07-24T07:22:31.909Z,1067.00
2023-07-24T07:23:31.942Z,1075.00
2023-07-24T07:24:32.098Z,1070.00
2023-07-24T07:25:32.045Z,1072.00
2023-07-24T07:26:32.446Z,1071.00
2023-07-24T07:27:32.140Z,1073.00
2023-07-24T07:28:32.131Z,1061.00
2023-07-24T07:29:32.206Z,1059.00
2023-07-24T07:30:32.240Z,1054.00
2023-07-24T07:31:32.397Z,1034.00
2023-07-24T07:32:32.378Z,1031.00
2023-07-24T07:33:32.390Z,1025.00
2023-07-24T07:34:32.531Z,1006.00
2023-07-24T07:35:32.459Z,994.00
2023-07-24T07:36:32.615Z,980.00
2023-07-24T07:37:32.580Z,960.00
2023-07-24T07:38:32.600Z,934.00
2023-07-24T07:39:32.642Z,914.00
2023-07-24T07:40:32.705Z,911.00
2023-07-24T07:41:32.729Z,888.00
2023-07-24T07:42:32.803Z,868.00
2023-07-24T07:43:32.829Z,852.00
2023-07-24T07:44:32.845Z,840.00
2023-07-24T07:45:32.912Z,820.00
2023-07-24T07:46:33.270Z,810.00
2023-07-24T07:47:33.010Z,789.00
2023-07-24T07:48:33.027Z,765.00
2023-07-24T07:49:33.073Z,748.00
2023-07-24T07:50:33.151Z,741.00
2023-07-24T07:51:33.142Z,731.00
2023-07-24T07:52:33.208Z,742.00
2023-07-24T07:53:33.219Z,736.00
2023-07-24T07:54:33.340Z,748.00
2023-07-24T07:55:33.274Z,753.00
2023-07-24T07:56:33.296Z,767.00
2023-07-24T07:57:33.336Z,783.00
2023-07-24T07:58:33.351Z,809.00
2023-07-24T07:59:33.406Z,815.00
2023-07-24T08:00:33.417Z,831.00
2023-07-24T08:01:33.492Z,839.00
2023-07-24T08:02:33.567Z,844.00
2023-07-24T08:03:33.520Z,850.00
2023-07-24T08:04:33.511Z,860.00
2023-07-24T08:05:33.523Z,876.00
2023-07-24T08:06:33.599Z,888.00
2023-07-24T08:07:33.570Z,897.00
2023-07-24T08:08:33.569Z,914.00
2023-07-24T08:09:33.585Z,915.00
2023-07-24T08:10:33.604Z,917.00
2023-07-24T08:11:33.615Z,927.00
2023-07-24T08:12:33.640Z,940.00
2023-07-24T08:13:33.649Z,951.00
2023-07-24T08:14:33.677Z,958.00
2023-07-24T08:15:33.702Z,956.00
2023-07-24T08:16:34.139Z,967.00
2023-07-24T08:17:33.802Z,989.00
2023-07-24T08:18:33.745Z,1003.00
2023-07-24T08:19:33.762Z,1012.00
2023-07-24T08:20:33.758Z,1022.00
2023-07-24T08:21:33.761Z,1025.00
2023-07-24T08:22:33.833Z,1033.00
2023-07-24T08:23:33.806Z,1036.00
2023-07-24T08:24:33.833Z,1039.00
2023-07-24T08:25:33.782Z,1046.00
2023-07-24T08:26:33.816Z,1048.00
2023-07-24T08:27:37.870Z,1059.00
2023-07-24T08:28:34.807Z,1060.00
2023-07-24T08:29:33.795Z,1060.00
2023-07-24T08:30:33.800Z,1061.00
2023-07-24T08:31:33.918Z,1068.00
2023-07-24T08:32:33.799Z,1077.00
2023-07-24T08:33:33.784Z,1069.00
2023-07-24T08:34:33.765Z,1076.00
2023-07-24T08:35:33.815Z,1080.00
2023-07-24T08:36:33.724Z,1079.00
2023-07-24T08:37:33.757Z,1077.00
2023-07-24T08:38:33.721Z,1083.00
2023-07-24T08:39:33.752Z,1092.00
2023-07-24T08:40:33.713Z,1104.00
2023-07-24T08:41:33.816Z,1107.00
2023-07-24T08:42:33.701Z,1117.00
2023-07-24T08:43:33.787Z,1114.00
2023-07-24T08:44:33.688Z,1105.00
2023-07-24T08:45:33.680Z,1109.00
2023-07-24T08:46:33.989Z,1106.00
2023-07-24T08:47:33.758Z,1111.00
2023-07-24T08:48:33.661Z,1114.00
2023-07-24T08:49:33.632Z,1136.00
2023-07-24T08:50:33.660Z,1139.00
2023-07-24T08:51:33.693Z,1142.00
2023-07-24T08:52:36.784Z,1150.00
2023-07-24T08:53:33.655Z,1151.00
2023-07-24T08:54:33.633Z,1148.00
2023-07-24T08:55:33.623Z,1139.00
2023-07-24T08:56:33.606Z,1134.00
2023-07-24T08:57:33.631Z,1152.00
2023-07-24T08:58:33.610Z,1156.00
2023-07-24T08:59:33.614Z,1149.00
2023-07-24T09:00:33.666Z,1117.00
2023-07-24T09:01:33.685Z,1121.00
2023-07-24T09:02:33.665Z,1116.00
2023-07-24T09:03:33.694Z,1129.00
2023-07-24T09:04:33.557Z,1130.00
2023-07-24T09:05:33.568Z,1120.00
2023-07-24T09:06:33.704Z,1116.00
2023-07-24T09:07:33.529Z,1124.00
2023-07-24T09:08:33.534Z,1119.00
2023-07-24T09:09:33.519Z,1085.00
2023-07-24T09:10:33.543Z,1089.00
2023-07-24T09:11:33.550Z,1055.00
2023-07-24T09:12:33.504Z,1055.00
2023-07-24T09:13:33.493Z,1067.00
2023-07-24T09:14:33.485Z,1080.00
2023-07-24T09:15:33.472Z,1090.00
2023-07-24T09:16:35.105Z,1087.00
2023-07-24T09:17:33.554Z,1128.00
2023-07-24T09:18:33.458Z,1126.00
2023-07-24T09:19:33.424Z,1135.00
2023-07-24T09:20:33.482Z,1137.00
2023-07-24T09:21:33.565Z,1134.00
2023-07-24T09:22:34.829Z,1121.00
2023-07-24T09:23:33.498Z,1153.00
2023-07-24T09:24:33.553Z,1138.00
2023-07-24T09:25:33.584Z,1141.00
2023-07-24T09:26:33.960Z,1130.00
2023-07-24T09:27:34.343Z,1101.00
2023-07-24T09:28:33.751Z,1068.00
2023-07-24T09:29:33.851Z,1070.00
2023-07-24T09:30:33.877Z,1074.00
2023-07-24T09:31:33.922Z,1075.00
2023-07-24T09:32:34.038Z,1082.00
2023-07-24T09:33:34.048Z,1099.00
2023-07-24T09:34:34.070Z,1091.00
2023-07-24T09:35:34.138Z,1090.00
2023-07-24T09:36:34.211Z,1047.00
2023-07-24T09:37:34.318Z,1053.00
2023-07-24T09:38:34.350Z,1027.00
2023-07-24T09:39:35.280Z,1015.00
2023-07-24T09:40:34.438Z,1000.00
2023-07-24T09:41:34.508Z,1017.00
2023-07-24T09:42:34.534Z,1005.00
2023-07-24T09:44:34.663Z,1006.00
2023-07-24T09:45:36.431Z,1008.00
2023-07-24T09:46:46.110Z,998.00
2023-07-24T09:47:55.922Z,998.00
2023-07-24T09:49:34.821Z,999.00
2023-07-24T09:50:34.745Z,999.00
2023-07-24T09:51:34.757Z,992.00
2023-07-24T09:52:34.754Z,998.00
2023-07-24T09:53:34.750Z,982.00
2023-07-24T09:54:34.721Z,964.00
2023-07-24T09:55:34.766Z,975.00
2023-07-24T09:56:47.548Z,965.00
2023-07-24T09:57:35.736Z,966.00
2023-07-24T09:58:34.687Z,960.00
2023-07-24T09:59:34.695Z,965.00
2023-07-24T10:00:34.680Z,973.00
2023-07-24T10:01:35.023Z,960.00
2023-07-24T10:02:34.688Z,950.00
2023-07-24T10:03:34.682Z,925.00
2023-07-24T10:04:34.739Z,913.00
2023-07-24T10:05:34.693Z,907.00
2023-07-24T10:06:34.858Z,921.00
2023-07-24T10:07:34.792Z,886.00
2023-07-24T10:08:34.830Z,892.00
2023-07-24T10:09:34.890Z,899.00
2023-07-24T10:10:34.957Z,901.00
2023-07-24T10:11:35.137Z,897.00
2023-07-24T10:12:35.079Z,897.00
2023-07-24T10:13:35.221Z,867.00
2023-07-24T10:14:35.233Z,899.00
2023-07-24T10:15:35.272Z,903.00
2023-07-24T10:16:35.346Z,876.00
2023-07-24T10:17:35.479Z,862.00
2023-07-24T10:18:35.398Z,881.00
2023-07-24T10:19:35.487Z,859.00
2023-07-24T10:20:35.584Z,838.00
2023-07-24T10:21:35.682Z,850.00
2023-07-24T10:22:35.611Z,880.00
2023-07-24T10:23:35.660Z,860.00
2023-07-24T10:24:41.876Z,834.00
2023-07-24T10:25:36.705Z,835.00
2023-07-24T10:26:35.700Z,839.00
2023-07-24T10:27:35.663Z,839.00
2023-07-24T10:28:35.708Z,813.00
2023-07-24T10:29:35.679Z,768.00
2023-07-24T10:30:35.761Z,781.00
2023-07-24T10:31:36.238Z,810.00
2023-07-24T10:32:35.796Z,843.00
2023-07-24T10:33:35.860Z,835.00
2023-07-24T10:34:35.666Z,786.00
2023-07-24T10:35:35.683Z,786.00
2023-07-24T10:36:35.752Z,795.00
2023-07-24T10:37:35.794Z,812.00
2023-07-24T10:38:39.430Z,820.00
2023-07-24T10:39:35.806Z,821.00
2023-07-24T10:40:35.794Z,799.00
2023-07-24T10:41:35.806Z,749.00
2023-07-24T10:42:35.809Z,719.00
2023-07-24T10:43:35.789Z,702.00
2023-07-24T10:44:35.801Z,715.00
2023-07-24T10:45:35.781Z,707.00
2023-07-24T10:46:35.781Z,682.00
2023-07-24T10:47:35.812Z,660.00
2023-07-24T10:48:35.758Z,664.00
2023-07-24T10:49:35.764Z,655.00
2023-07-24T10:50:35.839Z,644.00
2023-07-24T10:51:35.744Z,662.00
2023-07-24T10:52:35.733Z,665.00
2023-07-24T10:53:35.718Z,662.00
2023-07-24T10:54:35.721Z,717.00
2023-07-24T10:55:35.730Z,776.00
2023-07-24T10:56:35.702Z,816.00
2023-07-24T10:57:35.704Z,848.00
2023-07-24T10:58:35.699Z,898.00
2023-07-24T10:59:35.685Z,903.00
2023-07-24T11:00:35.984Z,899.00
2023-07-24T11:01:36.317Z,905.00
2023-07-24T11:02:35.725Z,976.00
2023-07-24T11:03:35.699Z,966.00
2023-07-24T11:04:35.697Z,882.00
2023-07-24T11:05:35.663Z,845.00
2023-07-24T11:06:35.646Z,839.00
2023-07-24T11:07:35.666Z,784.00
2023-07-24T11:08:35.646Z,718.00
2023-07-24T11:09:35.650Z,705.00
2023-07-24T11:10:35.648Z,657.00
2023-07-24T11:11:36.090Z,715.00
2023-07-24T11:12:35.675Z,688.00
2023-07-24T11:13:35.708Z,624.00
2023-07-24T11:14:35.772Z,634.00
2023-07-24T11:15:35.838Z,641.00
2023-07-24T11:16:35.825Z,646.00
2023-07-24T11:17:35.818Z,591.00
2023-07-24T11:18:48.552Z,560.00
2023-07-24T11:19:36.845Z,560.00
2023-07-24T11:20:35.816Z,551.00
2023-07-24T11:21:36.144Z,530.00
2023-07-24T11:22:35.805Z,503.00
2023-07-24T11:23:35.792Z,495.00
2023-07-24T11:24:35.780Z,507.00
2023-07-24T11:25:35.780Z,500.00
2023-07-24T11:26:35.760Z,505.00
2023-07-24T11:27:35.766Z,529.00
2023-07-24T11:28:35.793Z,511.00
2023-07-24T11:29:35.758Z,491.00
2023-07-24T11:30:35.746Z,502.00
2023-07-24T11:31:35.936Z,495.00
2023-07-24T11:32:35.768Z,529.00
2023-07-24T11:33:35.730Z,532.00
2023-07-24T11:34:35.735Z,500.00
2023-07-24T11:35:35.772Z,500.00
2023-07-24T11:36:35.784Z,516.00
2023-07-24T11:37:35.843Z,534.00
2023-07-24T11:38:35.872Z,505.00
2023-07-24T11:39:35.871Z,510.00
2023-07-24T11:40:35.914Z,528.00
2023-07-24T11:41:35.941Z,539.00
2023-07-24T11:42:36.012Z,511.00
2023-07-24T11:43:36.019Z,529.00
2023-07-24T11:44:36.962Z,577.00
2023-07-24T11:45:36.058Z,604.00
2023-07-24T11:46:36.095Z,574.00
2023-07-24T11:47:36.133Z,576.00
2023-07-24T11:48:36.160Z,549.00
2023-07-24T11:49:36.189Z,552.00
2023-07-24T11:50:36.231Z,541.00
2023-07-24T11:51:36.282Z,510.00
2023-07-24T11:52:36.303Z,500.00
2023-07-24T11:53:36.358Z,541.00
2023-07-24T11:54:36.401Z,587.00
2023-07-24T11:55:36.367Z,594.00
2023-07-24T11:56:36.482Z,610.00
2023-07-24T11:57:36.438Z,597.00
2023-07-24T11:58:36.459Z,619.00
2023-07-24T11:59:36.477Z,643.00
2023-07-24T12:00:37.855Z,664.00
2023-07-24T12:01:36.502Z,659.00
2023-07-24T12:02:36.588Z,744.00
2023-07-24T12:03:36.749Z,944.00
2023-07-24T12:04:36.638Z,1022.00
2023-07-24T12:05:36.618Z,1051.00
2023-07-24T12:06:36.611Z,1109.00
2023-07-24T12:07:36.681Z,1129.00
2023-07-24T12:08:36.703Z,1109.00
2023-07-24T12:09:38.472Z,1109.00
2023-07-24T12:10:36.987Z,1118.00
2023-07-24T12:11:36.717Z,1084.00
2023-07-24T12:12:36.713Z,1132.00
2023-07-24T12:13:36.743Z,1103.00
2023-07-24T12:14:36.749Z,1074.00
2023-07-24T12:15:36.867Z,1075.00